createdAt,value
2023-01-25T14:24:42.215Z,100232.27
2023-01-25T14:27:17.464Z,100226.35
2023-01-25T14:29:48.469Z,100210.48
2023-01-25T14:32:20.102Z,100219.08
2023-01-25T14:34:53.648Z,100208.06
2023-01-25T14:37:22.364Z,100196.36
2023-01-25T14:39:56.256Z,100184.33
2023-01-25T14:42:23.475Z,100179.45
2023-01-25T14:44:50.859Z,100169.48
2023-01-25T14:47:32.697Z,100159.71
2023-01-25T14:50:35.261Z,100153.65
2023-01-25T15:23:40.043Z,100132.83
2023-01-25T15:42:05.145Z,100121.30
2023-01-25T17:12:36.273Z,100046.44
2023-01-25T17:58:04.151Z,99968.13
2023-01-25T18:00:31.853Z,99971.58
2023-01-25T18:03:13.058Z,99976.67
2023-01-25T18:06:18.947Z,99973.00
2023-01-25T18:08:50.285Z,99974.03
2023-01-25T18:15:29.207Z,99982.20
2023-01-25T18:17:56.301Z,99983.81
2023-01-25T18:20:46.560Z,99991.20
2023-01-25T18:23:15.360Z,99982.48
2023-01-25T18:25:42.459Z,99984.30
2023-01-25T18:28:13.074Z,99984.39
2023-01-25T18:30:43.595Z,99980.29
2023-01-25T18:33:12.125Z,99981.88
2023-01-25T18:35:55.610Z,99983.02
2023-01-25T18:38:28.699Z,99977.02
2023-01-25T18:40:59.390Z,99972.13
2023-01-25T18:43:35.665Z,99967.14
2023-01-25T18:46:05.754Z,99963.67
2023-01-25T20:07:30.721Z,99911.71
2023-01-25T20:10:01.453Z,99907.80
2023-01-25T20:12:28.926Z,99908.86
2023-01-25T21:57:08.352Z,99875.63
2023-01-25T21:59:36.256Z,99871.40
2023-01-25T22:02:05.890Z,99869.06
2023-01-25T22:04:35.729Z,99865.60
2023-01-25T23:24:01.283Z,99735.11
2023-01-25T23:26:38.408Z,99730.46
2023-01-25T23:29:12.088Z,99725.05
2023-01-25T23:31:40.296Z,99725.91
2023-01-25T23:34:07.521Z,99718.90
2023-01-25T23:36:42.760Z,99722.38
2023-01-25T23:39:13.024Z,99716.50
